createdAt,value
2023-01-22T00:01:39.868Z,-4.21
2023-01-22T00:03:46.569Z,-4.32
2023-01-22T00:05:52.665Z,-4.43
2023-01-22T00:07:55.918Z,-4.42
2023-01-22T00:10:00.401Z,-4.37
2023-01-22T00:12:03.608Z,-4.38
2023-01-22T00:14:06.789Z,-4.36
2023-01-22T00:16:12.474Z,-4.37
2023-01-22T00:18:15.768Z,-4.38
2023-01-22T00:20:20.410Z,-4.41
2023-01-22T00:22:23.627Z,-4.40
2023-01-22T00:24:26.647Z,-4.40
2023-01-22T00:26:29.541Z,-4.44
2023-01-22T00:28:32.673Z,-4.47
2023-01-22T00:30:35.693Z,-4.49
2023-01-22T00:32:38.550Z,-4.53
2023-01-22T00:34:41.506Z,-4.63
2023-01-22T00:36:45.827Z,-4.67
2023-01-22T00:38:52.107Z,-4.71
2023-01-22T00:40:54.998Z,-4.76
2023-01-22T00:42:58.177Z,-4.85
2023-01-22T00:45:00.999Z,-4.82
2023-01-22T00:47:04.103Z,-4.90
2023-01-22T00:49:06.956Z,-4.99
2023-01-22T00:51:10.566Z,-5.06
2023-01-22T00:53:15.356Z,-5.17
2023-01-22T00:55:18.417Z,-5.25
2023-01-22T00:57:22.271Z,-5.27
2023-01-22T00:59:25.407Z,-5.28
2023-01-22T01:01:28.708Z,-5.42
2023-01-22T01:03:34.288Z,-5.49
2023-01-22T01:05:37.330Z,-5.52
2023-01-22T01:07:40.267Z,-5.56
2023-01-22T01:09:44.579Z,-5.55
2023-01-22T01:11:47.647Z,-5.63
2023-01-22T01:13:51.977Z,-5.60
2023-01-22T01:16:00.896Z,-5.59
2023-01-22T01:18:04.095Z,-5.56
2023-01-22T01:20:07.945Z,-5.55
2023-01-22T01:22:11.167Z,-5.60
2023-01-22T01:24:15.626Z,-5.66
2023-01-22T01:26:20.771Z,-5.60
2023-01-22T01:28:25.128Z,-5.52
2023-01-22T01:30:28.077Z,-5.49
2023-01-22T01:32:31.087Z,-5.47
2023-01-22T01:34:34.169Z,-5.42
2023-01-22T01:36:49.130Z,-5.38
2023-01-22T01:38:53.037Z,-5.41
2023-01-22T01:40:56.054Z,-5.35
2023-01-22T01:43:00.609Z,-5.25
2023-01-22T01:45:19.617Z,-5.19
2023-01-22T01:47:32.626Z,-5.15
2023-01-22T01:49:38.391Z,-5.06
2023-01-22T01:51:41.287Z,-5.00
2023-01-22T01:53:46.765Z,-4.91
2023-01-22T01:55:50.746Z,-4.82
2023-01-22T01:57:55.763Z,-4.75
2023-01-22T02:00:04.749Z,-4.66
2023-01-22T02:02:17.134Z,-4.61
2023-01-22T02:04:20.183Z,-4.57
2023-01-22T02:06:23.168Z,-4.53
2023-01-22T02:08:26.568Z,-4.49
2023-01-22T02:10:29.622Z,-4.45
2023-01-22T02:12:34.290Z,-4.39
2023-01-22T02:14:42.287Z,-4.36
2023-01-22T02:16:46.647Z,-4.35
2023-01-22T02:18:50.200Z,-4.32
2023-01-22T02:20:59.956Z,-4.30
2023-01-22T02:23:02.967Z,-4.31
2023-01-22T02:25:07.807Z,-4.30
2023-01-22T02:27:10.807Z,-4.27
2023-01-22T02:29:14.768Z,-4.35
2023-01-22T02:31:17.711Z,-4.35
2023-01-22T02:33:20.557Z,-4.35
2023-01-22T02:35:23.477Z,-4.39
2023-01-22T02:37:27.839Z,-4.37
2023-01-22T02:39:32.208Z,-4.35
2023-01-22T02:41:38.377Z,-4.30
2023-01-22T02:43:41.447Z,-4.31
2023-01-22T02:45:44.423Z,-4.26
2023-01-22T02:47:47.896Z,-4.26
2023-01-22T02:49:50.729Z,-4.22
2023-01-22T02:51:53.808Z,-4.21
2023-01-22T02:53:59.286Z,-4.21
2023-01-22T02:56:06.158Z,-4.12
2023-01-22T02:58:09.398Z,-4.06
2023-01-22T03:00:15.253Z,-4.00
2023-01-22T03:02:18.455Z,-3.94
2023-01-22T03:04:23.347Z,-3.90
2023-01-22T03:06:28.047Z,-3.83
2023-01-22T03:08:33.937Z,-3.78
2023-01-22T03:10:38.287Z,-3.71
2023-01-22T03:12:59.933Z,-3.66
2023-01-22T03:15:21.489Z,-3.61
2023-01-22T03:17:43.151Z,-3.58
2023-01-22T03:20:04.987Z,-3.51
2023-01-22T03:22:08.007Z,-3.47
2023-01-22T03:24:10.927Z,-3.44
2023-01-22T03:26:16.287Z,-3.40
2023-01-22T03:28:19.705Z,-3.35
2023-01-22T03:30:30.407Z,-3.32
2023-01-22T03:32:34.073Z,-3.28
2023-01-22T03:34:37.651Z,-3.25
2023-01-22T03:36:41.847Z,-3.21
2023-01-22T03:38:46.607Z,-3.18
2023-01-22T03:40:53.837Z,-3.13
2023-01-22T03:42:59.890Z,-3.10
2023-01-22T03:45:03.594Z,-3.07
2023-01-22T03:47:08.099Z,-3.04
2023-01-22T03:49:13.627Z,-3.02
2023-01-22T03:51:18.083Z,-2.99
2023-01-22T03:53:20.967Z,-2.96
2023-01-22T03:55:25.775Z,-2.92
2023-01-22T03:57:31.286Z,-2.90
2023-01-22T03:59:35.789Z,-2.89
2023-01-22T04:01:39.334Z,-2.87
2023-01-22T04:03:42.737Z,-2.85
2023-01-22T04:05:47.272Z,-2.82
2023-01-22T04:07:51.126Z,-2.81
2023-01-22T04:09:57.808Z,-2.79
2023-01-22T04:12:01.417Z,-2.76
2023-01-22T04:14:04.727Z,-2.72
2023-01-22T04:16:12.126Z,-2.71
2023-01-22T04:18:41.647Z,-2.70
2023-01-22T04:21:03.190Z,-2.67
2023-01-22T04:23:15.607Z,-2.65
2023-01-22T04:25:18.726Z,-2.63
2023-01-22T04:27:21.547Z,-2.63
2023-01-22T04:29:27.455Z,-2.61
2023-01-22T04:31:32.308Z,-2.58
2023-01-22T04:33:55.616Z,-2.56
2023-01-22T04:36:02.708Z,-2.53
2023-01-22T04:38:07.916Z,-2.53
2023-01-22T04:40:12.007Z,-2.51
2023-01-22T04:42:15.068Z,-2.44
2023-01-22T04:44:18.288Z,-2.36
2023-01-22T04:46:21.539Z,-2.32
2023-01-22T04:48:26.587Z,-2.29
2023-01-22T04:50:32.736Z,-2.26
2023-01-22T04:52:35.668Z,-2.22
2023-01-22T04:54:38.649Z,-2.21
2023-01-22T04:56:41.597Z,-2.22
2023-01-22T04:58:44.607Z,-2.19
2023-01-22T05:00:49.591Z,-2.17
2023-01-22T05:02:57.611Z,-2.15
2023-01-22T05:05:02.076Z,-2.16
2023-01-22T05:07:05.057Z,-2.16
2023-01-22T05:09:08.072Z,-2.13
2023-01-22T05:11:25.617Z,-2.13
2023-01-22T05:13:33.326Z,-2.12
2023-01-22T05:15:36.592Z,-2.09
2023-01-22T05:17:44.847Z,-2.07
2023-01-22T05:19:48.098Z,-2.10
2023-01-22T05:21:56.429Z,-2.08
2023-01-22T05:23:59.472Z,-2.05
2023-01-22T05:26:04.767Z,-2.03
2023-01-22T05:28:23.607Z,-2.01
2023-01-22T05:30:43.918Z,-2.01
2023-01-22T05:32:59.809Z,-2.04
2023-01-22T05:35:05.080Z,-2.04
2023-01-22T05:37:12.576Z,-2.01
2023-01-22T05:39:16.927Z,-1.98
2023-01-22T05:41:20.097Z,-1.97
2023-01-22T05:43:23.654Z,-1.99
2023-01-22T05:45:31.542Z,-1.97
2023-01-22T05:47:52.830Z,-1.91
2023-01-22T05:50:22.137Z,-1.92
2023-01-22T05:52:38.527Z,-1.91
2023-01-22T05:54:41.497Z,-1.95
2023-01-22T05:56:44.646Z,-1.91
2023-01-22T05:58:48.256Z,-1.91
2023-01-22T06:00:53.167Z,-1.93
2023-01-22T06:03:01.331Z,-1.93
2023-01-22T06:05:10.377Z,-1.92
2023-01-22T06:07:13.272Z,-1.92
2023-01-22T06:09:17.848Z,-1.93
2023-01-22T06:11:20.813Z,-1.90
2023-01-22T06:13:23.820Z,-1.85
2023-01-22T06:15:30.420Z,-1.85
2023-01-22T06:17:45.329Z,-1.86
2023-01-22T06:19:50.272Z,-1.87
2023-01-22T06:21:54.789Z,-1.84
2023-01-22T06:24:06.529Z,-1.82
2023-01-22T06:26:11.048Z,-1.76
2023-01-22T06:28:14.930Z,-1.72
2023-01-22T06:30:20.376Z,-1.71
2023-01-22T06:32:23.529Z,-1.72
2023-01-22T06:34:27.908Z,-1.71
2023-01-22T06:36:31.329Z,-1.66
2023-01-22T06:38:34.613Z,-1.64
2023-01-22T06:40:39.619Z,-1.66
2023-01-22T06:42:45.022Z,-1.62
2023-01-22T06:44:48.197Z,-1.61
2023-01-22T06:46:51.258Z,-1.60
2023-01-22T06:49:01.991Z,-1.58
2023-01-22T06:51:05.363Z,-1.55
2023-01-22T06:53:08.478Z,-1.52
2023-01-22T06:55:12.371Z,-1.53
2023-01-22T06:57:15.678Z,-1.52
2023-01-22T06:59:20.169Z,-1.48
2023-01-22T07:01:23.353Z,-1.45
2023-01-22T07:03:26.620Z,-1.43
2023-01-22T07:05:29.481Z,-1.42
2023-01-22T07:07:32.470Z,-1.41
2023-01-22T07:09:35.640Z,-1.41
2023-01-22T07:11:38.610Z,-1.41
2023-01-22T07:13:41.569Z,-1.36
2023-01-22T07:15:46.013Z,-1.33
2023-01-22T07:17:51.386Z,-1.32
2023-01-22T07:19:54.394Z,-1.29
2023-01-22T07:21:58.688Z,-1.23
2023-01-22T07:24:01.895Z,-1.22
2023-01-22T07:26:05.230Z,-1.20
2023-01-22T07:28:08.765Z,-1.18
2023-01-22T07:30:12.708Z,-1.31
2023-01-22T07:32:17.478Z,-1.23
2023-01-22T07:34:20.708Z,-1.13
2023-01-22T07:36:24.213Z,-1.11
2023-01-22T07:38:28.607Z,-1.10
2023-01-22T07:40:31.803Z,-1.13
2023-01-22T07:42:34.808Z,-1.18
2023-01-22T07:44:40.633Z,-1.17
2023-01-22T07:46:43.610Z,-1.10
2023-01-22T07:48:47.976Z,-1.13
2023-01-22T07:50:50.996Z,-1.09
2023-01-22T07:52:54.652Z,-1.11
2023-01-22T07:54:57.499Z,-1.07
2023-01-22T07:57:00.389Z,-1.06
2023-01-22T07:59:03.327Z,-1.02
2023-01-22T08:01:06.957Z,-1.06
2023-01-22T08:03:14.779Z,-1.06
2023-01-22T08:05:19.352Z,-1.07
2023-01-22T08:07:23.748Z,-1.04
2023-01-22T08:09:26.759Z,-0.98
2023-01-22T08:11:29.769Z,-0.92
2023-01-22T08:13:32.828Z,-0.89
2023-01-22T08:15:36.030Z,-0.88
2023-01-22T08:17:39.731Z,-0.82
2023-01-22T08:19:42.660Z,-0.82
2023-01-22T08:21:47.249Z,-0.88
2023-01-22T08:23:50.210Z,-0.85
2023-01-22T08:25:53.213Z,-0.82
2023-01-22T08:27:56.588Z,-0.78
2023-01-22T08:29:59.609Z,-0.74
2023-01-22T08:32:02.561Z,-0.74
2023-01-22T08:34:05.792Z,-0.76
2023-01-22T08:36:09.769Z,-0.64
2023-01-22T08:38:14.319Z,-0.59
2023-01-22T08:40:18.838Z,-0.58
2023-01-22T08:42:21.983Z,-0.55
2023-01-22T08:44:25.260Z,-0.50
2023-01-22T08:46:28.538Z,-0.51
2023-01-22T08:48:31.491Z,-0.50
2023-01-22T08:50:34.500Z,-0.43
2023-01-22T08:52:37.450Z,-0.48
2023-01-22T08:54:41.841Z,-0.43
2023-01-22T08:56:44.688Z,-0.44
2023-01-22T08:58:50.353Z,-0.44
2023-01-22T09:00:52.962Z,-0.42
2023-01-22T09:02:59.198Z,-0.33
2023-01-22T09:05:02.069Z,-0.28
2023-01-22T09:07:05.136Z,-0.28
2023-01-22T09:09:08.239Z,-0.20
2023-01-22T09:11:12.707Z,-0.05
2023-01-22T09:13:15.582Z,0.10
2023-01-22T09:15:18.688Z,0.03
2023-01-22T09:17:21.576Z,0.09
2023-01-22T09:19:25.039Z,0.09
2023-01-22T09:21:27.938Z,0.20
2023-01-22T09:23:30.969Z,0.19
2023-01-22T09:25:33.828Z,0.23
2023-01-22T09:27:38.413Z,0.15
2023-01-22T09:29:41.250Z,0.14
2023-01-22T09:31:44.294Z,0.18
2023-01-22T09:33:47.280Z,0.19
2023-01-22T09:35:50.238Z,0.20
2023-01-22T09:37:53.248Z,0.16
2023-01-22T09:39:56.231Z,-0.01
2023-01-22T09:42:01.423Z,0.18
2023-01-22T09:44:11.864Z,0.13
2023-01-22T09:46:20.425Z,0.30
2023-01-22T09:48:25.077Z,0.26
2023-01-22T09:50:30.738Z,0.35
2023-01-22T09:52:37.978Z,0.23
2023-01-22T09:54:42.607Z,0.34
2023-01-22T09:56:47.709Z,0.23
2023-01-22T09:58:52.247Z,0.28
2023-01-22T10:01:00.748Z,0.14
2023-01-22T10:03:07.393Z,0.27
2023-01-22T10:05:20.499Z,0.37
2023-01-22T10:07:26.268Z,0.33
2023-01-22T10:09:32.249Z,0.37
2023-01-22T10:11:35.177Z,0.40
2023-01-22T10:13:39.624Z,0.40
2023-01-22T10:15:42.974Z,0.28
2023-01-22T10:17:48.567Z,0.29
2023-01-22T10:19:56.177Z,0.37
2023-01-22T10:22:01.748Z,0.39
2023-01-22T10:24:04.748Z,0.29
2023-01-22T10:26:16.704Z,0.35
2023-01-22T10:28:26.015Z,0.30
2023-01-22T10:30:30.646Z,0.44
2023-01-22T10:32:33.866Z,0.54
2023-01-22T10:34:38.251Z,0.56
2023-01-22T10:36:41.177Z,0.60
2023-01-22T10:38:44.089Z,0.54
2023-01-22T10:40:46.968Z,0.54
2023-01-22T10:43:01.302Z,0.54
2023-01-22T10:45:16.788Z,0.57
2023-01-22T10:47:22.855Z,0.52
2023-01-22T10:49:27.127Z,0.52
2023-01-22T10:51:35.051Z,0.59
2023-01-22T10:53:44.399Z,0.69
2023-01-22T10:55:54.207Z,0.66
2023-01-22T10:58:05.091Z,0.63
2023-01-22T11:00:23.837Z,0.66
2023-01-22T11:02:27.163Z,0.65
2023-01-22T11:04:32.248Z,0.76
2023-01-22T11:06:42.314Z,0.75
2023-01-22T11:08:50.654Z,0.72
2023-01-22T11:10:57.047Z,0.74
2023-01-22T11:13:06.419Z,0.76
2023-01-22T11:15:21.708Z,0.74
2023-01-22T11:17:31.607Z,0.69
2023-01-22T11:19:41.396Z,0.55
2023-01-22T11:21:47.809Z,0.68
2023-01-22T11:23:56.373Z,0.78
2023-01-22T11:26:10.168Z,0.72
2023-01-22T11:28:34.089Z,0.84
2023-01-22T11:30:53.902Z,0.83
2023-01-22T11:33:05.650Z,0.84
2023-01-22T11:35:19.623Z,0.80
2023-01-22T11:37:46.614Z,0.84
2023-01-22T11:40:01.468Z,0.74
2023-01-22T11:42:13.855Z,0.72
2023-01-22T11:44:41.118Z,0.73
2023-01-22T11:47:01.367Z,0.68
2023-01-22T11:49:14.048Z,0.72
2023-01-22T11:51:24.754Z,0.71
2023-01-22T11:53:48.748Z,0.71
2023-01-22T11:56:11.128Z,0.71
2023-01-22T11:58:25.129Z,0.74
2023-01-22T12:00:42.657Z,0.69
2023-01-22T12:03:21.174Z,0.70
2023-01-22T12:05:36.727Z,0.50
2023-01-22T12:07:58.153Z,0.53
2023-01-22T12:10:23.500Z,0.66
2023-01-22T12:12:41.892Z,0.55
2023-01-22T12:15:11.790Z,0.64
2023-01-22T12:17:25.683Z,0.64
2023-01-22T12:19:47.850Z,0.64
2023-01-22T12:21:58.692Z,0.59
2023-01-22T12:24:09.507Z,0.60
2023-01-22T12:26:18.158Z,0.55
2023-01-22T12:28:27.008Z,0.54
2023-01-22T12:30:38.333Z,0.62
2023-01-22T12:32:46.908Z,0.55
2023-01-22T12:34:55.657Z,0.55
2023-01-22T12:37:00.819Z,0.46
2023-01-22T12:39:14.064Z,0.43
2023-01-22T12:41:41.458Z,0.51
2023-01-22T12:43:51.040Z,0.45
2023-01-22T12:45:59.382Z,0.40
2023-01-22T12:48:11.969Z,0.37
2023-01-22T12:50:19.486Z,0.46
2023-01-22T12:52:33.112Z,0.48
2023-01-22T12:54:37.116Z,0.49
2023-01-22T12:56:41.527Z,0.45
2023-01-22T12:58:44.607Z,0.42
2023-01-22T13:00:47.590Z,0.45
2023-01-22T13:02:50.972Z,0.58
2023-01-22T13:04:54.778Z,0.56
2023-01-22T13:07:21.048Z,0.57
2023-01-22T13:09:26.096Z,0.57
2023-01-22T13:11:32.158Z,0.61
2023-01-22T13:13:44.743Z,0.48
2023-01-22T13:15:55.014Z,0.42
2023-01-22T13:18:07.101Z,0.44
2023-01-22T13:20:16.940Z,0.44
2023-01-22T13:22:24.045Z,0.41
2023-01-22T13:24:27.128Z,0.41
2023-01-22T13:26:31.887Z,0.33
2023-01-22T13:28:36.297Z,0.34
2023-01-22T13:30:39.342Z,0.36
2023-01-22T13:32:42.428Z,0.33
2023-01-22T13:34:45.430Z,0.29
2023-01-22T13:36:50.589Z,0.34
2023-01-22T13:38:55.335Z,0.32
2023-01-22T13:41:00.914Z,0.27
2023-01-22T13:43:06.308Z,0.34
2023-01-22T13:45:19.771Z,0.30
2023-01-22T13:47:28.782Z,0.27
2023-01-22T13:49:33.648Z,0.26
2023-01-22T13:51:37.418Z,0.22
2023-01-22T13:53:43.311Z,0.17
2023-01-22T13:55:46.583Z,0.25
2023-01-22T13:57:51.670Z,0.20
2023-01-22T13:59:56.157Z,0.25
2023-01-22T14:02:11.550Z,0.23
2023-01-22T14:04:32.388Z,0.26
2023-01-22T14:06:46.525Z,0.25
2023-01-22T14:08:50.879Z,0.24
2023-01-22T14:10:57.939Z,0.25
2023-01-22T14:13:01.828Z,0.24
2023-01-22T14:15:15.070Z,0.28
2023-01-22T14:17:24.258Z,0.24
2023-01-22T14:19:27.248Z,0.29
2023-01-22T14:21:30.660Z,0.26
2023-01-22T14:23:34.120Z,0.25
2023-01-22T14:25:37.829Z,0.30
2023-01-22T14:27:43.271Z,0.24
2023-01-22T14:29:46.358Z,0.23
2023-01-22T14:31:49.373Z,0.26
2023-01-22T14:33:53.848Z,0.32
2023-01-22T14:35:57.298Z,0.31
2023-01-22T14:38:00.317Z,0.32
2023-01-22T14:40:04.209Z,0.32
2023-01-22T14:42:07.114Z,0.36
2023-01-22T14:44:11.177Z,0.31
2023-01-22T14:46:14.059Z,0.29
2023-01-22T14:48:19.629Z,0.31
2023-01-22T14:50:23.837Z,0.27
2023-01-22T14:52:26.901Z,0.34
2023-01-22T14:54:29.891Z,0.40
2023-01-22T14:56:32.890Z,0.31
2023-01-22T14:58:36.575Z,0.39
2023-01-22T15:00:40.121Z,0.38
2023-01-22T15:02:43.172Z,0.41
2023-01-22T15:04:46.860Z,0.47
2023-01-22T15:06:51.311Z,0.46
2023-01-22T15:08:54.367Z,0.45
2023-01-22T15:11:00.208Z,0.46
2023-01-22T15:13:03.206Z,0.46
2023-01-22T15:15:09.300Z,0.41
2023-01-22T15:17:12.238Z,0.39
2023-01-22T15:19:17.551Z,0.40
2023-01-22T15:21:21.450Z,0.41
2023-01-22T15:23:25.979Z,0.38
2023-01-22T15:25:29.270Z,0.35
2023-01-22T15:27:32.198Z,0.36
2023-01-22T15:29:35.268Z,0.36
2023-01-22T15:31:38.575Z,0.34
2023-01-22T15:33:41.939Z,0.34
2023-01-22T15:35:45.158Z,0.34
2023-01-22T15:37:48.860Z,0.32
2023-01-22T15:39:53.309Z,0.28
2023-01-22T15:41:56.305Z,0.33
2023-01-22T15:44:01.767Z,0.31
2023-01-22T15:46:05.080Z,0.31
2023-01-22T15:48:08.464Z,0.22
2023-01-22T15:50:12.288Z,0.20
2023-01-22T15:52:15.175Z,0.23
2023-01-22T15:54:18.098Z,0.25
2023-01-22T15:56:27.083Z,0.23
2023-01-22T15:58:32.168Z,0.23
2023-01-22T16:00:36.412Z,0.20
2023-01-22T16:02:40.712Z,0.18
2023-01-22T16:04:44.247Z,0.20
2023-01-22T16:06:47.971Z,0.18
2023-01-22T16:08:53.136Z,0.19
2023-01-22T16:10:56.762Z,0.16
2023-01-22T16:13:03.193Z,0.17
2023-01-22T16:15:09.218Z,0.18
2023-01-22T16:17:12.047Z,0.17
2023-01-22T16:19:15.432Z,0.13
2023-01-22T16:21:20.742Z,0.14
2023-01-22T16:23:24.871Z,0.18
2023-01-22T16:25:28.609Z,0.19
2023-01-22T16:27:31.951Z,0.18
2023-01-22T16:29:36.827Z,0.18
2023-01-22T16:31:39.978Z,0.16
2023-01-22T16:33:45.045Z,0.18
2023-01-22T16:35:48.206Z,0.16
2023-01-22T16:37:51.164Z,0.16
2023-01-22T16:39:54.155Z,0.19
2023-01-22T16:41:57.333Z,0.16
2023-01-22T16:44:02.068Z,0.17
2023-01-22T16:46:06.417Z,0.19
2023-01-22T16:48:09.477Z,0.19
2023-01-22T16:50:12.415Z,0.19
2023-01-22T16:52:22.381Z,0.20
2023-01-22T16:54:30.600Z,0.20
2023-01-22T16:56:33.768Z,0.20
2023-01-22T16:58:37.326Z,0.19
2023-01-22T17:00:40.285Z,0.21
2023-01-22T17:02:44.575Z,0.19
2023-01-22T17:04:47.593Z,0.20
2023-01-22T17:06:52.087Z,0.19
2023-01-22T17:08:55.337Z,0.20
2023-01-22T17:10:58.300Z,0.21
2023-01-22T17:13:01.156Z,0.22
2023-01-22T17:15:04.347Z,0.21
2023-01-22T17:17:08.886Z,0.21
2023-01-22T17:19:13.647Z,0.20
2023-01-22T17:21:18.315Z,0.22
2023-01-22T17:23:21.178Z,0.24
2023-01-22T17:25:24.080Z,0.23
2023-01-22T17:27:26.878Z,0.26
2023-01-22T17:29:32.215Z,0.24
2023-01-22T17:31:35.289Z,0.23
2023-01-22T17:33:38.920Z,0.25
2023-01-22T17:35:43.164Z,0.23
2023-01-22T17:37:46.324Z,0.23
2023-01-22T17:39:50.965Z,0.21
2023-01-22T17:41:54.117Z,0.23
2023-01-22T17:43:58.971Z,0.22
2023-01-22T17:46:01.971Z,0.21
2023-01-22T17:48:05.267Z,0.24
2023-01-22T17:50:09.287Z,0.25
2023-01-22T17:52:14.837Z,0.23
2023-01-22T17:54:17.657Z,0.19
2023-01-22T17:56:22.398Z,0.21
2023-01-22T17:58:25.287Z,0.22
2023-01-22T18:00:28.166Z,0.23
2023-01-22T18:02:31.359Z,0.26
2023-01-22T18:04:35.257Z,0.22
2023-01-22T18:06:39.496Z,0.24
2023-01-22T18:08:44.050Z,0.20
2023-01-22T18:10:46.997Z,0.21
2023-01-22T18:12:49.796Z,0.21
2023-01-22T18:14:52.677Z,0.22
2023-01-22T18:16:58.208Z,0.21
2023-01-22T18:19:03.696Z,0.27
2023-01-22T18:21:07.755Z,0.26
2023-01-22T18:23:11.006Z,0.25
2023-01-22T18:25:15.458Z,0.30
2023-01-22T18:27:18.425Z,0.28
2023-01-22T18:29:21.399Z,0.26
2023-01-22T18:31:25.861Z,0.31
2023-01-22T18:33:28.827Z,0.33
2023-01-22T18:35:34.898Z,0.33
2023-01-22T18:37:38.319Z,0.31
2023-01-22T18:39:41.368Z,0.28
2023-01-22T18:41:47.345Z,0.29
2023-01-22T18:43:53.719Z,0.32
2023-01-22T18:46:02.063Z,0.33
2023-01-22T18:48:05.726Z,0.33
2023-01-22T18:50:12.252Z,0.32
2023-01-22T18:52:15.608Z,0.28
2023-01-22T18:54:18.572Z,0.32
2023-01-22T18:56:21.926Z,0.30
2023-01-22T18:58:34.277Z,0.27
2023-01-22T19:00:38.266Z,0.28
2023-01-22T19:02:41.530Z,0.32
2023-01-22T19:04:44.459Z,0.33
2023-01-22T19:06:52.178Z,0.26
2023-01-22T19:08:57.076Z,0.29
2023-01-22T19:11:06.707Z,0.29
2023-01-22T19:13:10.005Z,0.31
2023-01-22T19:15:14.326Z,0.27
2023-01-22T19:17:17.489Z,0.28
2023-01-22T19:19:21.841Z,0.30
2023-01-22T19:21:25.787Z,0.32
2023-01-22T19:23:28.717Z,0.33
2023-01-22T19:25:32.037Z,0.35
2023-01-22T19:27:35.010Z,0.38
2023-01-22T19:29:38.008Z,0.36
2023-01-22T19:31:46.208Z,0.32
2023-01-22T19:33:51.887Z,0.32
2023-01-22T19:35:54.842Z,0.35
2023-01-22T19:37:57.847Z,0.37
2023-01-22T19:40:00.767Z,0.37
2023-01-22T19:42:05.447Z,0.34
2023-01-22T19:44:09.779Z,0.35
2023-01-22T19:46:14.426Z,0.40
2023-01-22T19:48:18.988Z,0.40
2023-01-22T19:50:25.489Z,0.40
2023-01-22T19:52:28.808Z,0.40
2023-01-22T19:54:31.968Z,0.37
2023-01-22T19:56:37.250Z,0.33
2023-01-22T19:58:40.177Z,0.30
2023-01-22T20:00:43.143Z,0.32
2023-01-22T20:02:46.367Z,0.32
2023-01-22T20:04:50.726Z,0.35
2023-01-22T20:06:57.798Z,0.35
2023-01-22T20:09:00.728Z,0.37
2023-01-22T20:11:05.007Z,0.32
2023-01-22T20:13:09.965Z,0.34
2023-01-22T20:15:14.874Z,0.38
2023-01-22T20:17:18.527Z,0.40
2023-01-22T20:19:21.746Z,0.38
2023-01-22T20:21:27.337Z,0.37
2023-01-22T20:23:30.382Z,0.35
2023-01-22T20:25:33.372Z,0.33
2023-01-22T20:27:36.769Z,0.32
2023-01-22T20:29:41.002Z,0.34
2023-01-22T20:31:45.044Z,0.33
2023-01-22T20:33:48.141Z,0.34
2023-01-22T20:35:51.037Z,0.34
2023-01-22T20:37:55.411Z,0.33
2023-01-22T20:40:00.318Z,0.30
2023-01-22T20:42:03.267Z,0.29
2023-01-22T20:44:06.858Z,0.30
2023-01-22T20:46:13.307Z,0.28
2023-01-22T20:48:17.479Z,0.26
2023-01-22T20:50:20.668Z,0.25
2023-01-22T20:52:23.657Z,0.24
2023-01-22T20:54:28.570Z,0.26
2023-01-22T20:56:33.188Z,0.27
2023-01-22T20:58:36.798Z,0.24
2023-01-22T21:00:40.179Z,0.22
2023-01-22T21:02:43.089Z,0.22
2023-01-22T21:04:46.508Z,0.25
2023-01-22T21:06:49.358Z,0.26
2023-01-22T21:08:56.458Z,0.26
2023-01-22T21:11:02.702Z,0.28
2023-01-22T21:13:05.578Z,0.28
2023-01-22T21:15:09.889Z,0.26
2023-01-22T21:17:12.887Z,0.26
2023-01-22T21:19:22.109Z,0.26
2023-01-22T21:21:25.690Z,0.28
2023-01-22T21:23:28.547Z,0.27
2023-01-22T21:25:31.430Z,0.23
2023-01-22T21:27:35.849Z,0.27
2023-01-22T21:29:39.808Z,0.22
2023-01-22T21:31:43.706Z,0.23
2023-01-22T21:33:47.147Z,0.22
2023-01-22T21:35:50.451Z,0.23
2023-01-22T21:37:53.459Z,0.19
2023-01-22T21:39:56.347Z,0.16
2023-01-22T21:42:19.621Z,0.16
2023-01-22T21:44:42.527Z,0.18
2023-01-22T21:46:46.586Z,0.21
2023-01-22T21:48:49.817Z,0.22
2023-01-22T21:50:52.786Z,0.24
2023-01-22T21:52:55.733Z,0.28
2023-01-22T21:54:59.457Z,0.27
2023-01-22T21:57:03.245Z,0.27
2023-01-22T21:59:06.191Z,0.24
2023-01-22T22:01:11.410Z,0.24
2023-01-22T22:03:16.351Z,0.24
2023-01-22T22:05:19.448Z,0.23
2023-01-22T22:07:22.347Z,0.20
2023-01-22T22:09:27.467Z,0.22
2023-01-22T22:11:30.578Z,0.24
2023-01-22T22:13:35.435Z,0.24
2023-01-22T22:15:39.297Z,0.24
2023-01-22T22:17:45.127Z,0.24
2023-01-22T22:19:48.217Z,0.23
2023-01-22T22:21:51.519Z,0.22
2023-01-22T22:23:57.317Z,0.23
2023-01-22T22:26:01.047Z,0.20
2023-01-22T22:28:04.455Z,0.20
2023-01-22T22:30:08.809Z,0.21
2023-01-22T22:32:12.017Z,0.21
2023-01-22T22:34:16.451Z,0.18
2023-01-22T22:36:21.696Z,0.18
2023-01-22T22:38:24.557Z,0.17
2023-01-22T22:40:27.567Z,0.20
2023-01-22T22:42:30.968Z,0.14
2023-01-22T22:44:35.958Z,0.16
2023-01-22T22:46:40.288Z,0.13
2023-01-22T22:48:43.817Z,0.16
2023-01-22T22:50:48.350Z,0.17
2023-01-22T22:52:51.369Z,0.18
2023-01-22T22:54:54.216Z,0.15
2023-01-22T22:56:57.210Z,0.16
2023-01-22T22:59:04.015Z,0.10
2023-01-22T23:01:08.380Z,0.09
2023-01-22T23:03:11.256Z,0.10
2023-01-22T23:05:14.187Z,0.10
2023-01-22T23:07:18.778Z,0.11
2023-01-22T23:09:21.814Z,0.12
2023-01-22T23:11:27.262Z,0.16
2023-01-22T23:13:30.288Z,0.16
2023-01-22T23:15:34.007Z,0.14
2023-01-22T23:17:36.970Z,0.15
2023-01-22T23:19:39.929Z,0.18
2023-01-22T23:21:43.173Z,0.16
2023-01-22T23:23:47.787Z,0.17
2023-01-22T23:25:50.857Z,0.17
2023-01-22T23:27:55.902Z,0.11
2023-01-22T23:29:58.758Z,0.18
2023-01-22T23:32:01.808Z,0.20
2023-01-22T23:34:06.977Z,0.18
2023-01-22T23:36:12.408Z,0.22
2023-01-22T23:38:15.568Z,0.24
2023-01-22T23:40:20.304Z,0.26
2023-01-22T23:42:23.579Z,0.28
2023-01-22T23:44:26.846Z,0.28
2023-01-22T23:46:31.199Z,0.29
2023-01-22T23:48:34.168Z,0.27
2023-01-22T23:50:37.090Z,0.23
2023-01-22T23:52:39.878Z,0.24
2023-01-22T23:54:43.019Z,0.25
2023-01-22T23:56:47.409Z,0.26
2023-01-22T23:58:53.167Z,0.25
